createdAt,value
2023-03-15T00:00:15.360Z,48.95
2023-03-15T00:01:19.809Z,48.89
2023-03-15T00:02:22.167Z,48.94
2023-03-15T00:03:24.448Z,49.01
2023-03-15T00:04:28.604Z,49.06
2023-03-15T00:05:31.721Z,49.03
2023-03-15T00:06:38.185Z,49.16
2023-03-15T00:07:41.393Z,49.18
2023-03-15T00:08:43.667Z,49.29
2023-03-15T00:09:46.643Z,49.39
2023-03-15T00:10:50.716Z,49.25
2023-03-15T00:11:53.038Z,49.41
2023-03-15T00:12:56.574Z,49.58
2023-03-15T00:13:59.521Z,49.76
2023-03-15T00:15:04.426Z,49.79
2023-03-15T00:16:07.217Z,49.77
2023-03-15T00:17:09.460Z,49.75
2023-03-15T00:18:17.934Z,49.71
2023-03-15T00:19:24.736Z,49.91
2023-03-15T00:20:29.771Z,49.95
2023-03-15T00:21:31.924Z,49.99
2023-03-15T00:22:37.589Z,49.97
2023-03-15T00:23:39.725Z,49.97
2023-03-15T00:24:42.962Z,50.13
2023-03-15T00:25:50.948Z,50.07
2023-03-15T00:26:53.272Z,50.08
2023-03-15T00:27:55.418Z,50.18
2023-03-15T00:28:57.631Z,50.29
2023-03-15T00:30:01.095Z,50.23
2023-03-15T00:32:23.611Z,50.31
2023-03-15T00:33:26.317Z,50.32
2023-03-15T00:34:32.490Z,50.41
2023-03-15T00:35:40.494Z,50.39
2023-03-15T00:36:42.688Z,50.40
2023-03-15T00:37:46.054Z,50.28
2023-03-15T00:38:51.644Z,50.35
2023-03-15T00:39:53.952Z,50.13
2023-03-15T00:40:57.866Z,50.34
2023-03-15T00:42:00.026Z,50.30
2023-03-15T00:43:02.319Z,50.26
2023-03-15T00:44:06.074Z,50.36
2023-03-15T00:45:08.598Z,50.30
2023-03-15T00:46:17.584Z,50.23
2023-03-15T00:47:19.806Z,50.31
2023-03-15T00:48:23.755Z,50.30
2023-03-15T00:49:25.860Z,50.30
2023-03-15T00:50:32.873Z,50.40
2023-03-15T00:51:36.434Z,50.42
2023-03-15T00:52:40.232Z,50.47
2023-03-15T00:53:47.540Z,50.52
2023-03-15T00:54:55.230Z,50.54
2023-03-15T00:55:58.053Z,50.43
2023-03-15T00:57:02.753Z,50.55
2023-03-15T00:58:05.302Z,50.52
2023-03-15T00:59:07.612Z,50.56
2023-03-15T01:00:14.644Z,50.50
2023-03-15T01:01:23.386Z,50.68
2023-03-15T01:02:25.592Z,50.64
2023-03-15T01:03:28.690Z,50.56
2023-03-15T01:04:31.896Z,50.60
2023-03-15T01:05:35.854Z,50.66
2023-03-15T01:06:38.164Z,50.69
2023-03-15T01:07:40.803Z,50.82
2023-03-15T01:08:43.616Z,50.88
2023-03-15T01:09:48.456Z,50.92
2023-03-15T01:10:51.443Z,51.00
2023-03-15T01:11:54.482Z,51.00
2023-03-15T01:12:56.792Z,50.89
2023-03-15T01:14:03.026Z,50.88
2023-03-15T01:15:08.894Z,50.87
2023-03-15T01:16:15.413Z,50.95
2023-03-15T01:17:23.286Z,51.76
2023-03-15T01:18:26.197Z,52.37
2023-03-15T01:19:30.440Z,53.10
2023-03-15T01:20:38.249Z,53.32
2023-03-15T01:21:42.974Z,53.45
2023-03-15T01:22:51.828Z,53.62
2023-03-15T01:23:56.050Z,53.74
2023-03-15T01:25:01.121Z,53.69
2023-03-15T01:26:13.832Z,53.74
2023-03-15T01:27:22.246Z,53.88
2023-03-15T01:28:25.873Z,54.09
2023-03-15T01:29:29.167Z,54.15
2023-03-15T01:30:33.445Z,54.46
2023-03-15T01:31:35.999Z,54.45
2023-03-15T01:32:38.207Z,54.32
2023-03-15T01:33:40.500Z,54.36
2023-03-15T01:34:43.188Z,54.57
2023-03-15T01:35:45.718Z,54.46
2023-03-15T01:36:50.973Z,54.40
2023-03-15T01:37:53.530Z,54.43
2023-03-15T01:38:55.981Z,54.29
2023-03-15T01:40:08.337Z,54.61
2023-03-15T01:41:14.495Z,54.52
2023-03-15T01:42:18.121Z,54.49
2023-03-15T01:43:22.385Z,54.40
2023-03-15T01:44:29.461Z,54.61
2023-03-15T01:46:01.393Z,54.59
2023-03-15T01:47:05.486Z,54.36
2023-03-15T01:48:09.781Z,54.62
2023-03-15T01:49:23.929Z,54.52
2023-03-15T01:50:26.330Z,54.46
2023-03-15T01:51:37.208Z,54.31
2023-03-15T01:52:41.098Z,54.04
2023-03-15T01:53:49.280Z,54.49
2023-03-15T01:54:53.855Z,54.87
2023-03-15T01:55:57.601Z,54.85
2023-03-15T01:57:04.307Z,54.73
2023-03-15T01:58:07.627Z,55.18
2023-03-15T01:59:18.064Z,55.00
2023-03-15T02:00:20.992Z,54.90
2023-03-15T02:01:28.443Z,54.69
2023-03-15T02:02:31.237Z,54.48
2023-03-15T02:03:36.401Z,54.50
2023-03-15T02:05:56.933Z,54.52
2023-03-15T02:07:02.774Z,55.17
2023-03-15T02:08:08.896Z,54.75
2023-03-15T02:09:14.983Z,54.83
2023-03-15T02:11:42.062Z,55.15
2023-03-15T02:12:49.978Z,54.95
2023-03-15T02:13:54.219Z,55.36
2023-03-15T02:14:58.728Z,55.05
2023-03-15T02:16:02.316Z,54.83
2023-03-15T02:17:06.797Z,54.80
2023-03-15T02:18:09.617Z,54.99
2023-03-15T02:20:35.558Z,55.08
2023-03-15T02:23:14.017Z,54.82
2023-03-15T02:24:25.949Z,55.16
2023-03-15T02:25:44.042Z,54.95
2023-03-15T02:26:54.799Z,55.07
2023-03-15T02:27:57.914Z,55.33
2023-03-15T02:29:00.329Z,55.17
2023-03-15T02:30:04.066Z,54.96
2023-03-15T02:31:06.721Z,55.17
2023-03-15T02:32:09.007Z,55.27
2023-03-15T02:33:14.815Z,55.31
2023-03-15T02:34:17.427Z,55.87
2023-03-15T02:36:36.124Z,55.43
2023-03-15T02:37:38.448Z,55.47
2023-03-15T02:38:40.950Z,55.62
2023-03-15T02:39:43.117Z,55.93
2023-03-15T02:40:47.760Z,55.57
2023-03-15T02:41:57.657Z,55.68
2023-03-15T02:44:24.412Z,55.96
2023-03-15T02:45:28.903Z,55.66
2023-03-15T02:46:32.300Z,55.58
2023-03-15T02:47:34.407Z,55.63
2023-03-15T02:48:38.706Z,55.85
2023-03-15T02:49:43.375Z,55.77
2023-03-15T02:50:45.622Z,55.86
2023-03-15T02:51:47.649Z,55.76
2023-03-15T02:52:49.824Z,55.57
2023-03-15T02:53:51.870Z,55.42
2023-03-15T02:54:56.008Z,55.30
2023-03-15T02:55:58.442Z,55.63
2023-03-15T02:57:02.015Z,55.72
2023-03-15T02:58:06.476Z,56.15
2023-03-15T02:59:08.694Z,55.73
2023-03-15T03:00:12.792Z,56.02
2023-03-15T03:01:15.993Z,55.51
2023-03-15T03:02:18.477Z,55.83
2023-03-15T03:03:20.768Z,55.36
2023-03-15T03:04:22.943Z,55.79
2023-03-15T03:05:25.612Z,55.83
2023-03-15T03:06:27.767Z,55.77
2023-03-15T03:07:30.538Z,55.63
2023-03-15T03:08:34.876Z,55.81
2023-03-15T03:09:37.241Z,56.26
2023-03-15T03:10:39.602Z,56.30
2023-03-15T03:11:42.216Z,56.40
2023-03-15T03:12:44.359Z,56.14
2023-03-15T03:13:46.638Z,56.33
2023-03-15T03:14:48.772Z,56.28
2023-03-15T03:15:52.796Z,56.45
2023-03-15T03:16:56.035Z,56.48
2023-03-15T03:17:58.445Z,56.65
2023-03-15T03:19:00.868Z,56.40
2023-03-15T03:20:09.827Z,56.46
2023-03-15T03:21:14.352Z,56.42
2023-03-15T03:22:19.590Z,56.36
2023-03-15T03:23:24.758Z,56.67
2023-03-15T03:24:27.091Z,56.61
2023-03-15T03:25:29.999Z,56.63
2023-03-15T03:26:32.573Z,56.73
2023-03-15T03:27:34.724Z,56.63
2023-03-15T03:28:36.997Z,56.95
2023-03-15T03:29:40.258Z,56.78
2023-03-15T03:30:44.934Z,57.32
2023-03-15T03:31:49.380Z,56.86
2023-03-15T03:32:52.209Z,56.57
2023-03-15T03:33:56.022Z,57.07
2023-03-15T03:34:59.452Z,56.92
2023-03-15T03:36:01.993Z,56.66
2023-03-15T03:37:05.287Z,56.79
2023-03-15T03:38:10.111Z,57.00
2023-03-15T03:39:33.962Z,56.79
2023-03-15T03:40:37.597Z,56.99
2023-03-15T03:41:40.240Z,56.84
2023-03-15T03:42:43.014Z,56.64
2023-03-15T03:43:45.687Z,56.63
2023-03-15T03:44:48.702Z,56.55
2023-03-15T03:45:54.008Z,56.68
2023-03-15T03:46:56.320Z,56.77
2023-03-15T03:47:59.266Z,56.70
2023-03-15T03:49:01.634Z,56.79
2023-03-15T03:50:04.244Z,56.73
2023-03-15T03:51:06.416Z,56.89
2023-03-15T03:52:08.635Z,56.96
2023-03-15T03:53:11.651Z,57.48
2023-03-15T03:54:17.113Z,57.07
2023-03-15T03:55:19.270Z,56.81
2023-03-15T03:56:21.628Z,57.24
2023-03-15T03:57:23.807Z,57.37
2023-03-15T03:58:26.060Z,57.28
2023-03-15T03:59:32.974Z,57.29
2023-03-15T04:00:36.953Z,57.11
2023-03-15T04:01:40.206Z,56.92
2023-03-15T04:02:43.127Z,57.28
2023-03-15T04:03:47.355Z,57.46
2023-03-15T04:04:51.934Z,57.16
2023-03-15T04:05:58.242Z,57.37
2023-03-15T04:07:01.680Z,57.38
2023-03-15T04:08:08.619Z,57.29
2023-03-15T04:09:14.224Z,57.62
2023-03-15T04:10:18.478Z,57.91
2023-03-15T04:11:22.573Z,57.60
2023-03-15T04:12:26.672Z,57.24
2023-03-15T04:13:30.706Z,57.68
2023-03-15T04:14:34.804Z,58.20
2023-03-15T04:15:38.859Z,58.11
2023-03-15T04:16:41.564Z,58.03
2023-03-15T04:17:45.524Z,58.01
2023-03-15T04:18:48.089Z,57.84
2023-03-15T04:19:50.634Z,57.99
2023-03-15T04:20:54.935Z,57.92
2023-03-15T04:21:58.386Z,57.80
2023-03-15T04:24:43.747Z,58.51
2023-03-15T04:27:05.882Z,58.21
2023-03-15T04:28:26.730Z,58.28
2023-03-15T04:29:30.798Z,57.76
2023-03-15T04:30:34.684Z,57.96
2023-03-15T04:31:44.344Z,58.10
2023-03-15T04:33:07.997Z,58.06
2023-03-15T04:34:21.045Z,58.13
2023-03-15T04:35:35.460Z,58.12
2023-03-15T04:36:56.822Z,58.06
2023-03-15T04:38:04.415Z,58.50
2023-03-15T04:39:09.315Z,58.75
2023-03-15T04:40:26.313Z,58.54
2023-03-15T04:41:33.815Z,58.71
2023-03-15T04:42:37.798Z,58.56
2023-03-15T04:43:47.636Z,58.73
2023-03-15T04:44:54.826Z,58.72
2023-03-15T04:46:13.012Z,58.76
2023-03-15T04:47:22.904Z,59.18
2023-03-15T04:48:38.721Z,59.10
2023-03-15T04:49:42.746Z,59.45
2023-03-15T04:50:47.370Z,59.41
2023-03-15T04:51:54.304Z,59.30
2023-03-15T04:53:02.567Z,59.31
2023-03-15T04:54:19.988Z,59.20
2023-03-15T04:55:29.817Z,59.42
2023-03-15T04:56:34.310Z,59.19
2023-03-15T04:57:47.525Z,59.39
2023-03-15T05:00:11.230Z,58.82
2023-03-15T05:01:16.012Z,59.01
2023-03-15T05:02:26.069Z,58.68
2023-03-15T05:03:32.899Z,58.90
2023-03-15T05:04:36.933Z,58.82
2023-03-15T05:06:57.480Z,58.46
2023-03-15T05:08:13.809Z,58.12
2023-03-15T05:10:38.629Z,57.22
2023-03-15T05:11:59.347Z,56.84
2023-03-15T05:13:12.477Z,56.97
2023-03-15T05:14:16.499Z,56.55
2023-03-15T05:15:32.799Z,56.47
2023-03-15T05:16:37.080Z,56.68
2023-03-15T05:17:53.703Z,56.54
2023-03-15T05:19:00.515Z,56.27
2023-03-15T05:20:15.603Z,56.31
2023-03-15T05:21:19.606Z,56.75
2023-03-15T05:22:42.708Z,56.73
2023-03-15T05:23:44.812Z,56.48
2023-03-15T05:24:53.903Z,56.62
2023-03-15T05:26:05.478Z,56.45
2023-03-15T05:27:27.761Z,56.58
2023-03-15T05:28:46.031Z,56.08
2023-03-15T05:29:54.038Z,56.89
2023-03-15T05:31:15.512Z,56.88
2023-03-15T05:32:25.432Z,56.70
2023-03-15T05:34:47.285Z,56.54
2023-03-15T05:36:10.378Z,56.68
2023-03-15T05:37:21.672Z,57.10
2023-03-15T05:38:32.841Z,56.92
2023-03-15T05:39:37.502Z,56.56
2023-03-15T05:40:45.423Z,56.25
2023-03-15T05:43:08.185Z,56.05
2023-03-15T05:44:27.693Z,56.15
2023-03-15T05:45:43.616Z,56.10
2023-03-15T05:47:04.567Z,56.02
2023-03-15T05:48:15.233Z,55.94
2023-03-15T05:49:22.364Z,55.93
2023-03-15T05:50:26.629Z,55.88
2023-03-15T05:51:31.966Z,55.91
2023-03-15T05:52:54.708Z,55.83
2023-03-15T05:54:16.823Z,56.00
2023-03-15T05:55:21.839Z,56.07
2023-03-15T05:57:54.191Z,56.23
2023-03-15T05:58:58.893Z,56.27
2023-03-15T06:01:23.377Z,56.31
2023-03-15T09:44:40.642Z,53.90
2023-03-15T09:46:05.387Z,54.86
2023-03-15T09:47:36.236Z,54.89
2023-03-15T09:49:13.075Z,55.02
2023-03-15T09:50:23.363Z,54.95
2023-03-15T09:51:41.764Z,54.78
2023-03-15T09:53:01.671Z,54.67
2023-03-15T09:55:37.018Z,54.56
2023-03-15T09:56:47.546Z,54.52
2023-03-15T09:58:03.077Z,54.44
2023-03-15T09:59:10.497Z,54.34
2023-03-15T10:01:41.468Z,54.35
2023-03-15T10:02:51.789Z,54.31
2023-03-15T10:05:28.894Z,54.19
2023-03-15T10:06:32.259Z,54.25
2023-03-15T10:07:37.512Z,54.22
2023-03-15T10:08:40.559Z,54.13
2023-03-15T10:11:12.682Z,53.90
2023-03-15T10:12:25.724Z,53.75
2023-03-15T10:13:48.370Z,53.66
2023-03-15T10:15:28.360Z,53.55
2023-03-15T10:16:50.993Z,53.54
2023-03-15T10:18:06.465Z,53.40
2023-03-15T10:19:37.963Z,53.43
2023-03-15T10:22:06.597Z,53.40
2023-03-15T10:23:22.326Z,53.07
2023-03-15T10:25:00.737Z,52.88
2023-03-15T10:26:06.186Z,52.73
2023-03-15T10:27:21.841Z,52.52
2023-03-15T10:28:28.183Z,52.29
2023-03-15T10:29:30.609Z,52.13
2023-03-15T10:30:36.796Z,52.06
2023-03-15T10:31:44.797Z,52.04
2023-03-15T10:34:03.975Z,52.07
2023-03-15T10:35:15.445Z,52.13
2023-03-15T10:36:22.044Z,52.10
2023-03-15T10:37:26.082Z,51.99
2023-03-15T10:38:29.586Z,51.90
2023-03-15T10:39:33.503Z,51.81
2023-03-15T10:40:46.423Z,51.68
2023-03-15T10:41:52.359Z,51.42
2023-03-15T10:42:59.079Z,51.54
2023-03-15T10:45:31.785Z,51.50
2023-03-15T10:46:40.345Z,51.61
2023-03-15T10:47:50.431Z,51.54
2023-03-15T10:49:01.690Z,51.46
2023-03-15T10:50:05.081Z,51.45
2023-03-15T10:51:23.209Z,51.17
2023-03-15T10:52:39.599Z,51.12
2023-03-15T10:53:59.312Z,51.14
2023-03-15T10:55:19.251Z,50.74
2023-03-15T10:56:31.216Z,50.50
2023-03-15T10:57:39.130Z,50.41
2023-03-15T10:58:45.219Z,50.21
2023-03-15T11:00:02.345Z,50.20
2023-03-15T11:01:08.361Z,50.21
2023-03-15T11:03:29.770Z,50.18
2023-03-15T11:04:34.379Z,50.23
2023-03-15T11:05:49.145Z,50.08
2023-03-15T11:08:20.131Z,50.04
2023-03-15T11:09:23.892Z,50.07
2023-03-15T11:10:30.215Z,49.99
2023-03-15T11:13:20.832Z,49.74
2023-03-15T11:16:04.697Z,49.33
2023-03-15T11:17:10.717Z,49.25
2023-03-15T11:18:22.448Z,48.69
2023-03-15T11:19:31.832Z,48.83
2023-03-15T11:20:39.010Z,48.95
2023-03-15T11:21:43.357Z,49.04
2023-03-15T11:22:53.417Z,48.80
2023-03-15T11:23:57.171Z,48.95
2023-03-15T11:24:59.857Z,48.83
2023-03-15T11:26:02.609Z,48.56
2023-03-15T11:27:12.929Z,48.63
2023-03-15T11:28:22.984Z,48.53
2023-03-15T11:29:34.896Z,48.34
2023-03-15T11:30:40.507Z,48.30
2023-03-15T11:31:44.526Z,48.37
2023-03-15T11:32:48.351Z,48.25
2023-03-15T11:34:06.953Z,48.34
2023-03-15T11:36:43.106Z,48.10
2023-03-15T11:38:06.180Z,48.14
2023-03-15T11:39:09.308Z,48.16
2023-03-15T11:40:21.737Z,48.16
2023-03-15T11:43:08.352Z,48.14
2023-03-15T11:44:21.636Z,48.22
2023-03-15T11:45:32.532Z,47.94
2023-03-15T11:48:23.393Z,47.77
2023-03-15T11:49:35.782Z,47.90
2023-03-15T11:50:40.332Z,47.79
2023-03-15T11:51:46.720Z,47.83
2023-03-15T11:52:51.710Z,47.93
2023-03-15T11:55:29.758Z,47.82
2023-03-15T11:56:49.833Z,47.84
2023-03-15T11:59:21.375Z,47.83
2023-03-15T12:00:36.240Z,48.07
2023-03-15T12:03:28.891Z,48.13
2023-03-15T12:06:19.282Z,51.74
2023-03-15T12:07:25.585Z,52.02
2023-03-15T12:08:48.720Z,51.71
2023-03-15T12:10:04.359Z,51.87
2023-03-15T12:11:13.558Z,51.89
2023-03-15T12:12:31.258Z,51.57
2023-03-15T12:13:37.132Z,51.19
2023-03-15T12:14:39.877Z,51.63
2023-03-15T12:15:44.625Z,51.75
2023-03-15T12:16:54.019Z,51.38
2023-03-15T12:18:04.304Z,52.06
2023-03-15T12:19:18.956Z,51.14
2023-03-15T12:20:40.498Z,50.68
2023-03-15T12:21:59.609Z,51.42
2023-03-15T12:24:35.955Z,51.36
2023-03-15T12:25:56.037Z,51.39
2023-03-15T12:27:07.818Z,50.94
2023-03-15T12:28:30.634Z,50.55
2023-03-15T12:29:35.118Z,50.16
2023-03-15T12:30:46.426Z,50.20
2023-03-15T12:31:59.279Z,50.08
2023-03-15T12:33:04.569Z,49.80
2023-03-15T12:34:14.407Z,49.61
2023-03-15T12:35:22.795Z,49.48
2023-03-15T12:36:37.793Z,49.16
2023-03-15T12:37:46.825Z,49.22
2023-03-15T12:40:21.141Z,48.94
2023-03-15T12:43:11.681Z,48.68
2023-03-15T12:44:39.709Z,48.53
2023-03-15T12:45:44.295Z,48.37
2023-03-15T12:48:07.695Z,48.43
2023-03-15T12:49:26.795Z,48.59
2023-03-15T12:50:52.295Z,48.31
2023-03-15T12:51:59.777Z,48.20
2023-03-15T12:53:30.969Z,48.13
2023-03-15T12:54:58.853Z,48.08
2023-03-15T12:56:30.728Z,48.10
2023-03-15T12:57:48.566Z,48.18
2023-03-15T12:58:55.986Z,48.10
2023-03-15T13:00:00.683Z,48.16
2023-03-15T13:01:05.854Z,48.29
2023-03-15T13:03:52.837Z,48.51
2023-03-15T13:07:05.643Z,48.48
2023-03-15T13:08:20.243Z,48.41
2023-03-15T13:10:00.204Z,48.34
2023-03-15T13:11:15.333Z,50.26
2023-03-15T13:12:24.547Z,52.89
2023-03-15T13:15:23.108Z,51.83
2023-03-15T13:18:12.269Z,51.96
2023-03-15T13:19:27.789Z,52.63
2023-03-15T13:21:06.345Z,52.67
2023-03-15T13:22:30.333Z,52.72
2023-03-15T13:23:33.822Z,52.37
2023-03-15T13:24:52.707Z,51.67
2023-03-15T13:26:26.345Z,52.25
2023-03-15T13:27:48.810Z,52.34
2023-03-15T13:29:08.145Z,52.65
2023-03-15T13:31:40.984Z,52.65
2023-03-15T13:32:43.999Z,53.21
2023-03-15T13:33:48.485Z,53.22
2023-03-15T13:34:54.078Z,53.14
2023-03-15T13:36:01.617Z,53.09
2023-03-15T13:37:08.179Z,53.24
2023-03-15T13:38:44.759Z,53.44
2023-03-15T13:39:59.402Z,52.70
2023-03-15T13:41:04.464Z,53.01
2023-03-15T13:42:18.767Z,53.75
2023-03-15T13:43:28.922Z,53.59
2023-03-15T13:44:34.028Z,53.80
2023-03-15T13:45:41.132Z,53.49
2023-03-15T13:46:50.123Z,53.44
2023-03-15T13:47:53.644Z,53.76
2023-03-15T13:48:56.164Z,54.47
2023-03-15T13:49:58.957Z,54.30
2023-03-15T13:51:08.472Z,54.29
2023-03-15T13:52:12.462Z,54.50
2023-03-15T13:53:22.902Z,54.64
2023-03-15T13:54:28.911Z,54.64
2023-03-15T13:55:37.055Z,54.92
2023-03-15T13:58:08.626Z,55.41
2023-03-15T13:59:12.306Z,55.01
2023-03-15T14:00:19.394Z,55.44
2023-03-15T14:01:23.755Z,54.96
2023-03-15T14:02:44.943Z,55.09
2023-03-15T14:03:50.824Z,55.72
2023-03-15T14:04:59.661Z,55.71
2023-03-15T14:06:03.453Z,55.88
2023-03-15T14:07:31.389Z,55.63
2023-03-15T14:08:37.629Z,55.55
2023-03-15T14:09:40.142Z,55.15
2023-03-15T14:10:43.659Z,55.29
2023-03-15T14:11:46.367Z,55.82
2023-03-15T14:12:54.940Z,55.62
2023-03-15T14:14:00.435Z,55.50
2023-03-15T14:15:27.296Z,54.91
2023-03-15T14:17:03.236Z,54.69
2023-03-15T14:17:57.436Z,54.32
2023-03-15T14:20:43.191Z,55.45
2023-03-15T14:21:54.680Z,55.97
2023-03-15T14:23:04.730Z,55.80
2023-03-15T14:24:11.788Z,55.96
2023-03-15T14:25:21.647Z,55.65
2023-03-15T14:26:30.528Z,55.26
2023-03-15T14:27:33.259Z,55.00
2023-03-15T14:28:37.118Z,54.92
2023-03-15T14:31:13.521Z,54.73
2023-03-15T14:32:28.240Z,55.49
2023-03-15T14:33:34.330Z,55.44
2023-03-15T14:34:46.339Z,54.71
2023-03-15T14:35:52.589Z,54.89
2023-03-15T14:36:59.302Z,54.43
2023-03-15T14:38:26.932Z,53.40
2023-03-15T14:39:33.489Z,53.51
2023-03-15T14:40:37.724Z,52.33
2023-03-15T14:41:42.183Z,52.61
2023-03-15T14:42:50.411Z,51.99
2023-03-15T14:43:55.492Z,52.85
2023-03-15T14:44:58.302Z,51.96
2023-03-15T14:46:03.168Z,50.97
2023-03-15T14:47:16.542Z,51.28
2023-03-15T14:48:25.070Z,50.59
2023-03-15T14:49:28.505Z,50.72
2023-03-15T14:50:38.970Z,50.92
2023-03-15T14:51:42.560Z,50.29
2023-03-15T14:52:52.379Z,49.81
2023-03-15T14:53:58.104Z,49.88
2023-03-15T14:55:00.801Z,49.53
2023-03-15T14:56:03.462Z,49.72
2023-03-15T14:57:06.377Z,49.35
2023-03-15T14:58:16.790Z,49.29
2023-03-15T15:00:39.251Z,54.62
2023-03-15T15:01:46.997Z,49.84
2023-03-15T15:02:54.949Z,48.49
2023-03-15T15:04:02.886Z,48.66
2023-03-15T15:05:30.934Z,48.81
2023-03-15T15:06:35.470Z,49.03
2023-03-15T15:07:44.188Z,48.33
2023-03-15T15:08:48.999Z,47.05
2023-03-15T15:11:12.265Z,48.70
2023-03-15T15:12:22.442Z,48.48
2023-03-15T15:13:27.928Z,48.90
2023-03-15T15:14:41.511Z,48.72
2023-03-15T15:15:55.011Z,48.62
2023-03-15T15:16:57.949Z,48.46
2023-03-15T15:17:56.200Z,48.61
2023-03-15T15:18:58.464Z,48.87
2023-03-15T15:20:01.341Z,49.04
2023-03-15T15:21:20.702Z,48.41
2023-03-15T15:22:23.154Z,48.24
2023-03-15T15:23:32.363Z,48.46
2023-03-15T15:24:36.249Z,48.73
2023-03-15T15:25:38.709Z,48.67
2023-03-15T15:26:44.798Z,48.89
2023-03-15T15:27:50.975Z,48.86
2023-03-15T15:29:00.402Z,49.08
2023-03-15T15:30:05.317Z,48.60
2023-03-15T15:31:13.030Z,48.79
2023-03-15T15:33:36.782Z,48.86
2023-03-15T15:34:42.181Z,49.63
2023-03-15T15:35:45.881Z,49.97
2023-03-15T15:36:49.084Z,50.14
2023-03-15T15:37:53.495Z,50.37
2023-03-15T15:38:59.871Z,50.05
2023-03-15T15:40:12.528Z,50.08
2023-03-15T15:42:35.809Z,50.64
2023-03-15T15:43:42.868Z,50.79
2023-03-15T15:44:47.681Z,51.52
2023-03-15T15:45:52.720Z,51.79
2023-03-15T15:46:58.073Z,51.54
2023-03-15T15:48:01.250Z,52.00
2023-03-15T15:49:10.114Z,51.58
2023-03-15T15:50:20.219Z,51.74
2023-03-15T15:51:31.342Z,51.97
2023-03-15T15:53:52.025Z,51.93
2023-03-15T15:56:11.983Z,52.69
2023-03-15T15:57:15.541Z,52.65
2023-03-15T15:58:20.481Z,52.97
2023-03-15T15:59:25.009Z,52.41
2023-03-15T16:00:28.482Z,52.89
2023-03-15T16:01:32.264Z,52.67
2023-03-15T16:02:38.680Z,53.03
2023-03-15T16:03:44.039Z,52.95
2023-03-15T16:04:48.300Z,52.64
2023-03-15T16:05:53.495Z,52.75
2023-03-15T16:09:37.418Z,53.73
2023-03-15T16:10:43.176Z,54.23
2023-03-15T16:11:50.718Z,54.44
2023-03-15T16:12:57.335Z,54.33
2023-03-15T16:15:25.713Z,54.55
2023-03-15T16:16:31.864Z,54.36
2023-03-15T16:17:35.324Z,54.06
2023-03-15T16:18:44.658Z,53.99
2023-03-15T16:19:54.443Z,54.44
2023-03-15T16:21:02.157Z,54.75
2023-03-15T16:22:04.717Z,55.18
2023-03-15T16:23:17.523Z,55.50
2023-03-15T16:24:28.705Z,55.65
2023-03-15T16:25:34.822Z,55.74
2023-03-15T16:26:43.280Z,55.92
2023-03-15T16:27:52.484Z,55.66
2023-03-15T16:28:56.035Z,55.45
2023-03-15T16:29:59.570Z,55.22
2023-03-15T16:31:02.675Z,54.94
2023-03-15T16:32:17.916Z,55.31
2023-03-15T16:33:18.027Z,55.87
2023-03-15T16:34:20.477Z,55.68
2023-03-15T16:35:34.776Z,55.77
2023-03-15T16:36:42.530Z,55.88
2023-03-15T16:37:45.667Z,55.76
2023-03-15T16:38:55.329Z,56.10
2023-03-15T16:40:00.291Z,56.15
2023-03-15T16:41:08.387Z,56.27
2023-03-15T16:42:15.816Z,56.41
2023-03-15T16:43:20.590Z,56.39
2023-03-15T16:44:26.112Z,56.36
2023-03-15T16:45:29.936Z,56.87
2023-03-15T16:48:03.430Z,56.84
2023-03-15T16:49:17.208Z,56.65
2023-03-15T16:50:24.624Z,57.08
2023-03-15T16:51:27.886Z,56.97
2023-03-15T16:52:35.222Z,57.09
2023-03-15T16:53:40.400Z,57.36
2023-03-15T16:54:58.673Z,57.46
2023-03-15T16:57:24.552Z,57.48
2023-03-15T16:58:32.447Z,57.75
2023-03-15T16:59:34.746Z,57.64
2023-03-15T17:00:37.248Z,57.59
2023-03-15T17:01:40.355Z,57.64
2023-03-15T17:04:02.921Z,57.59
2023-03-15T17:05:07.759Z,58.01
2023-03-15T17:06:19.740Z,57.93
2023-03-15T17:07:34.405Z,58.16
2023-03-15T17:08:40.887Z,58.18
2023-03-15T17:09:46.763Z,57.86
2023-03-15T17:10:50.851Z,58.07
2023-03-15T17:11:56.132Z,58.22
2023-03-15T17:13:02.351Z,58.08
2023-03-15T17:15:45.658Z,58.48
2023-03-15T17:16:50.037Z,58.64
2023-03-15T17:18:00.454Z,58.57
2023-03-15T17:19:14.622Z,58.70
2023-03-15T17:20:19.226Z,58.74
2023-03-15T17:21:24.309Z,58.65
2023-03-15T17:22:30.430Z,58.79
2023-03-15T17:23:33.261Z,58.78
2023-03-15T17:24:38.634Z,58.83
2023-03-15T17:25:41.800Z,58.69
2023-03-15T17:26:50.759Z,58.75
2023-03-15T17:27:59.570Z,58.84
2023-03-15T17:29:04.169Z,58.69
2023-03-15T17:30:34.121Z,58.80
2023-03-15T17:31:39.481Z,58.81
2023-03-15T17:32:42.782Z,58.70
2023-03-15T17:33:46.296Z,58.83
2023-03-15T17:34:49.282Z,59.21
2023-03-15T17:35:53.221Z,59.25
2023-03-15T17:36:59.706Z,59.30
2023-03-15T17:38:06.247Z,59.18
2023-03-15T17:39:24.129Z,59.41
2023-03-15T17:40:32.041Z,59.55
2023-03-15T17:41:38.416Z,59.50
2023-03-15T17:42:43.374Z,59.55
2023-03-15T17:43:46.241Z,59.47
2023-03-15T17:44:51.644Z,59.60
2023-03-15T17:46:00.283Z,59.54
2023-03-15T17:47:04.980Z,59.57
2023-03-15T17:48:08.643Z,59.58
2023-03-15T17:49:15.947Z,59.67
2023-03-15T17:51:34.681Z,59.84
2023-03-15T17:52:39.522Z,59.97
2023-03-15T17:53:44.849Z,60.19
2023-03-15T17:54:49.416Z,60.03
2023-03-15T17:55:55.004Z,60.10
2023-03-15T17:57:02.228Z,59.96
2023-03-15T17:58:14.999Z,60.16
2023-03-15T18:00:33.762Z,60.39
2023-03-15T18:01:40.255Z,60.51
2023-03-15T18:02:54.971Z,60.59
2023-03-15T18:03:52.957Z,60.91
2023-03-15T18:17:15.126Z,59.93
2023-03-15T18:29:34.448Z,60.77
2023-03-15T18:43:43.085Z,59.84
2023-03-15T18:52:43.069Z,60.72
2023-03-15T19:05:55.709Z,61.06
2023-03-15T19:06:59.591Z,61.89
2023-03-15T19:08:04.845Z,61.81
2023-03-15T19:09:14.990Z,61.81
2023-03-15T19:10:22.621Z,61.75
2023-03-15T19:11:26.805Z,61.64
2023-03-15T19:12:34.919Z,61.52
2023-03-15T19:15:15.768Z,61.45
2023-03-15T19:16:22.081Z,61.47
2023-03-15T19:17:26.443Z,61.42
2023-03-15T19:18:29.149Z,61.27
2023-03-15T19:19:39.717Z,61.33
2023-03-15T19:20:46.654Z,61.38
2023-03-15T19:21:51.741Z,61.42
2023-03-15T19:23:01.032Z,61.41
2023-03-15T19:24:04.266Z,61.47
2023-03-15T19:25:12.694Z,61.44
2023-03-15T19:26:21.698Z,61.52
2023-03-15T19:27:32.851Z,61.60
2023-03-15T19:28:36.943Z,61.63
2023-03-15T19:29:41.309Z,61.53
2023-03-15T19:30:44.006Z,61.60
2023-03-15T19:31:46.326Z,61.72
2023-03-15T19:32:50.759Z,61.63
2023-03-15T19:33:54.420Z,61.65
2023-03-15T19:35:00.887Z,61.70
2023-03-15T19:36:10.155Z,61.70
2023-03-15T19:37:13.012Z,61.63
2023-03-15T19:38:16.144Z,61.65
2023-03-15T19:39:25.571Z,61.73
2023-03-15T19:40:29.488Z,61.60
2023-03-15T19:41:31.617Z,61.65
2023-03-15T19:43:54.086Z,61.67
2023-03-15T19:45:01.842Z,61.73
2023-03-15T19:46:08.293Z,61.72
2023-03-15T19:47:16.122Z,61.73
2023-03-15T19:48:22.762Z,61.80
2023-03-15T19:49:32.371Z,61.78
2023-03-15T19:50:36.270Z,61.87
2023-03-15T19:51:39.873Z,61.78
2023-03-15T19:52:45.551Z,61.87
2023-03-15T19:53:49.206Z,61.82
2023-03-15T19:54:51.516Z,61.89
2023-03-15T19:55:59.850Z,61.83
2023-03-15T19:57:01.995Z,61.79
2023-03-15T19:58:05.709Z,61.86
2023-03-15T19:59:09.903Z,61.86
2023-03-15T20:00:22.413Z,61.94
2023-03-15T20:01:28.164Z,61.95
2023-03-15T20:02:33.242Z,61.91
2023-03-15T20:03:36.686Z,61.92
2023-03-15T20:04:46.117Z,61.92
2023-03-15T20:05:54.246Z,61.93
2023-03-15T20:07:00.592Z,61.99
2023-03-15T20:08:08.378Z,62.13
2023-03-15T20:09:11.124Z,62.00
2023-03-15T20:10:14.738Z,62.02
2023-03-15T20:11:20.052Z,62.12
2023-03-15T20:12:23.443Z,62.11
2023-03-15T20:13:32.912Z,62.23
2023-03-15T20:14:38.413Z,62.12
2023-03-15T20:15:41.110Z,62.20
2023-03-15T20:16:50.118Z,62.14
2023-03-15T20:17:53.206Z,62.21
2023-03-15T20:18:58.997Z,62.25
2023-03-15T20:20:01.105Z,62.24
2023-03-15T20:21:06.826Z,62.29
2023-03-15T20:22:10.085Z,62.29
2023-03-15T20:23:16.464Z,62.33
2023-03-15T20:24:19.241Z,62.37
2023-03-15T20:25:22.035Z,62.27
2023-03-15T20:26:25.723Z,62.31
2023-03-15T20:27:28.358Z,62.31
2023-03-15T20:28:30.961Z,62.30
2023-03-15T20:29:35.385Z,62.31
2023-03-15T20:30:44.201Z,62.31
2023-03-15T20:31:46.553Z,62.40
2023-03-15T20:32:50.133Z,62.45
2023-03-15T20:33:57.694Z,62.42
2023-03-15T20:35:01.701Z,62.49
2023-03-15T20:36:11.161Z,62.51
2023-03-15T20:37:16.816Z,62.50
2023-03-15T20:38:19.132Z,62.41